Brumado, Brazil
Current Conditions -  °F | °C
As of 1:00 PM on Thursday 18 Dec 2014 (Local Time) from SBQV Reporting Station
Broken Clouds Broken Clouds  
Wind Chill: 79°   Ceiling: 1800
Heat Index: 81°   Visibility: 6mi
Dew Point: 68°   Wind: 7mph
Humidity: 69%   Direction: 340°NNW
Pressure: 29.97"   Gusts: NA
Location:  14.2°S, 41.67°W
Report Text: SBQV 181600Z 34006KT 9999 BKN018 BKN070 26/20 Q1015
Loading
Personal Weather Stations






























Interactive Weather Map New forecast layout! Learn more

10-Day Weather Forecast

Advertisements
Track Severe Weather on mobile